sensor_id;sensor_type;location;lat;lon;timestamp;temperature;humidity
5352;DHT22;2698;51.454;6.736;2022-12-07T00:01:51;5.50;99.90
5352;DHT22;2698;51.454;6.736;2022-12-07T00:04:18;5.50;99.90
5352;DHT22;2698;51.454;6.736;2022-12-07T00:06:46;5.50;99.90
5352;DHT22;2698;51.454;6.736;2022-12-07T00:09:17;5.50;99.90
5352;DHT22;2698;51.454;6.736;2022-12-07T00:11:48;5.50;99.90
5352;DHT22;2698;51.454;6.736;2022-12-07T00:14:18;5.50;99.90
5352;DHT22;2698;51.454;6.736;2022-12-07T00:16:45;5.50;99.90
5352;DHT22;2698;51.454;6.736;2022-12-07T00:19:13;5.50;99.90
5352;DHT22;2698;51.454;6.736;2022-12-07T00:21:40;5.50;99.90
5352;DHT22;2698;51.454;6.736;2022-12-07T00:24:07;5.50;99.90
5352;DHT22;2698;51.454;6.736;2022-12-07T00:26:36;5.50;99.90
5352;DHT22;2698;51.454;6.736;2022-12-07T00:29:05;5.50;99.90
5352;DHT22;2698;51.454;6.736;2022-12-07T00:31:35;5.50;99.90
5352;DHT22;2698;51.454;6.736;2022-12-07T00:34:04;5.50;99.90
5352;DHT22;2698;51.454;6.736;2022-12-07T00:36:31;5.50;99.90
5352;DHT22;2698;51.454;6.736;2022-12-07T00:39:00;5.50;99.90
5352;DHT22;2698;51.454;6.736;2022-12-07T00:41:28;5.50;99.90
5352;DHT22;2698;51.454;6.736;2022-12-07T00:43:56;5.50;99.90
5352;DHT22;2698;51.454;6.736;2022-12-07T00:46:23;5.50;99.90
5352;DHT22;2698;51.454;6.736;2022-12-07T00:48:52;5.50;99.90
5352;DHT22;2698;51.454;6.736;2022-12-07T00:51:22;5.50;99.90
5352;DHT22;2698;51.454;6.736;2022-12-07T00:53:49;5.50;99.90
5352;DHT22;2698;51.454;6.736;2022-12-07T00:56:18;5.40;99.90
5352;DHT22;2698;51.454;6.736;2022-12-07T00:58:50;5.40;99.90
5352;DHT22;2698;51.454;6.736;2022-12-07T01:01:17;5.40;99.90
5352;DHT22;2698;51.454;6.736;2022-12-07T01:03:44;5.50;99.90
5352;DHT22;2698;51.454;6.736;2022-12-07T01:06:15;5.40;99.90
5352;DHT22;2698;51.454;6.736;2022-12-07T01:08:42;5.40;99.90
5352;DHT22;2698;51.454;6.736;2022-12-07T01:11:12;5.40;99.90
5352;DHT22;2698;51.454;6.736;2022-12-07T01:13:39;5.40;99.90
5352;DHT22;2698;51.454;6.736;2022-12-07T01:16:07;5.40;99.90
5352;DHT22;2698;51.454;6.736;2022-12-07T01:18:36;5.40;99.90
5352;DHT22;2698;51.454;6.736;2022-12-07T01:21:05;5.40;99.90
5352;DHT22;2698;51.454;6.736;2022-12-07T01:23:35;5.30;99.90
5352;DHT22;2698;51.454;6.736;2022-12-07T01:26:03;5.30;99.90
5352;DHT22;2698;51.454;6.736;2022-12-07T01:28:31;5.30;99.90
5352;DHT22;2698;51.454;6.736;2022-12-07T01:30:59;5.30;99.90
5352;DHT22;2698;51.454;6.736;2022-12-07T01:33:27;5.30;99.90
5352;DHT22;2698;51.454;6.736;2022-12-07T01:35:54;5.30;99.90
5352;DHT22;2698;51.454;6.736;2022-12-07T01:38:21;5.30;99.90
5352;DHT22;2698;51.454;6.736;2022-12-07T01:40:55;5.20;99.90
5352;DHT22;2698;51.454;6.736;2022-12-07T01:43:24;5.20;99.90
5352;DHT22;2698;51.454;6.736;2022-12-07T01:45:52;5.20;99.90
5352;DHT22;2698;51.454;6.736;2022-12-07T01:48:21;5.20;99.90
5352;DHT22;2698;51.454;6.736;2022-12-07T01:50:50;5.10;99.90
5352;DHT22;2698;51.454;6.736;2022-12-07T01:53:18;5.10;99.90
5352;DHT22;2698;51.454;6.736;2022-12-07T01:55:47;5.10;99.90
5352;DHT22;2698;51.454;6.736;2022-12-07T01:58:17;5.10;99.90
5352;DHT22;2698;51.454;6.736;2022-12-07T02:00:44;5.10;99.90
5352;DHT22;2698;51.454;6.736;2022-12-07T02:03:14;5.00;99.90
5352;DHT22;2698;51.454;6.736;2022-12-07T02:05:43;5.00;99.90
5352;DHT22;2698;51.454;6.736;2022-12-07T02:08:11;5.00;99.90
5352;DHT22;2698;51.454;6.736;2022-12-07T02:10:38;5.00;99.90
5352;DHT22;2698;51.454;6.736;2022-12-07T02:13:09;5.00;99.90
5352;DHT22;2698;51.454;6.736;2022-12-07T02:15:59;5.00;99.90
5352;DHT22;2698;51.454;6.736;2022-12-07T02:18:38;4.90;99.90
5352;DHT22;2698;51.454;6.736;2022-12-07T02:21:12;5.00;99.90
5352;DHT22;2698;51.454;6.736;2022-12-07T02:24:08;4.90;99.90
5352;DHT22;2698;51.454;6.736;2022-12-07T02:29:48;4.90;99.90
5352;DHT22;2698;51.454;6.736;2022-12-07T02:32:18;4.90;99.90
5352;DHT22;2698;51.454;6.736;2022-12-07T02:34:50;4.90;99.90
5352;DHT22;2698;51.454;6.736;2022-12-07T02:37:25;4.90;99.90
5352;DHT22;2698;51.454;6.736;2022-12-07T02:39:57;4.90;99.90
5352;DHT22;2698;51.454;6.736;2022-12-07T02:42:30;4.80;99.90
5352;DHT22;2698;51.454;6.736;2022-12-07T02:45:00;4.80;99.90
5352;DHT22;2698;51.454;6.736;2022-12-07T02:47:28;4.70;99.90
5352;DHT22;2698;51.454;6.736;2022-12-07T02:49:56;4.70;99.90
5352;DHT22;2698;51.454;6.736;2022-12-07T02:52:22;4.60;99.90
5352;DHT22;2698;51.454;6.736;2022-12-07T02:54:49;4.50;99.90
5352;DHT22;2698;51.454;6.736;2022-12-07T02:57:31;4.50;99.90
5352;DHT22;2698;51.454;6.736;2022-12-07T03:00:07;4.40;99.90
5352;DHT22;2698;51.454;6.736;2022-12-07T03:02:44;4.40;99.90
5352;DHT22;2698;51.454;6.736;2022-12-07T03:05:36;4.40;99.90
5352;DHT22;2698;51.454;6.736;2022-12-07T03:08:12;4.30;99.90
5352;DHT22;2698;51.454;6.736;2022-12-07T03:10:44;4.30;99.90
5352;DHT22;2698;51.454;6.736;2022-12-07T03:13:17;4.20;99.90
5352;DHT22;2698;51.454;6.736;2022-12-07T03:15:52;4.20;99.90
5352;DHT22;2698;51.454;6.736;2022-12-07T03:18:22;4.20;99.90
5352;DHT22;2698;51.454;6.736;2022-12-07T03:20:53;4.20;99.90
5352;DHT22;2698;51.454;6.736;2022-12-07T03:23:23;4.10;99.90
5352;DHT22;2698;51.454;6.736;2022-12-07T03:25:59;4.20;99.90
5352;DHT22;2698;51.454;6.736;2022-12-07T03:28:30;4.10;99.90
5352;DHT22;2698;51.454;6.736;2022-12-07T03:31:01;4.10;99.90
5352;DHT22;2698;51.454;6.736;2022-12-07T03:33:32;4.10;99.90
5352;DHT22;2698;51.454;6.736;2022-12-07T03:36:04;4.10;99.90
5352;DHT22;2698;51.454;6.736;2022-12-07T03:38:35;4.00;99.90
5352;DHT22;2698;51.454;6.736;2022-12-07T03:41:07;4.00;99.90
5352;DHT22;2698;51.454;6.736;2022-12-07T03:43:36;4.00;99.90
5352;DHT22;2698;51.454;6.736;2022-12-07T03:46:15;4.00;99.90
5352;DHT22;2698;51.454;6.736;2022-12-07T03:48:50;4.10;99.90
5352;DHT22;2698;51.454;6.736;2022-12-07T03:51:22;4.10;99.90
5352;DHT22;2698;51.454;6.736;2022-12-07T03:53:54;4.20;99.90
5352;DHT22;2698;51.454;6.736;2022-12-07T03:56:23;4.20;99.90
5352;DHT22;2698;51.454;6.736;2022-12-07T03:58:52;4.30;99.90
5352;DHT22;2698;51.454;6.736;2022-12-07T04:01:22;4.30;99.90
5352;DHT22;2698;51.454;6.736;2022-12-07T04:03:49;4.30;99.90
5352;DHT22;2698;51.454;6.736;2022-12-07T04:06:16;4.30;99.90
5352;DHT22;2698;51.454;6.736;2022-12-07T04:08:43;4.30;99.90
5352;DHT22;2698;51.454;6.736;2022-12-07T04:11:10;4.30;99.90
5352;DHT22;2698;51.454;6.736;2022-12-07T04:13:37;4.40;99.90
5352;DHT22;2698;51.454;6.736;2022-12-07T04:16:17;4.30;99.90
5352;DHT22;2698;51.454;6.736;2022-12-07T04:18:45;4.30;99.90
5352;DHT22;2698;51.454;6.736;2022-12-07T04:21:12;4.30;99.90
5352;DHT22;2698;51.454;6.736;2022-12-07T04:23:39;4.30;99.90
5352;DHT22;2698;51.454;6.736;2022-12-07T04:26:05;4.20;99.90
5352;DHT22;2698;51.454;6.736;2022-12-07T04:28:32;4.20;99.90
5352;DHT22;2698;51.454;6.736;2022-12-07T04:30:59;4.10;99.90
5352;DHT22;2698;51.454;6.736;2022-12-07T04:33:26;4.10;99.90
5352;DHT22;2698;51.454;6.736;2022-12-07T04:35:54;4.10;99.90
5352;DHT22;2698;51.454;6.736;2022-12-07T04:38:21;4.00;99.90
5352;DHT22;2698;51.454;6.736;2022-12-07T04:40:47;4.00;99.90
5352;DHT22;2698;51.454;6.736;2022-12-07T04:43:14;4.00;99.90
5352;DHT22;2698;51.454;6.736;2022-12-07T04:45:45;4.00;99.90
5352;DHT22;2698;51.454;6.736;2022-12-07T04:48:12;4.00;99.90
5352;DHT22;2698;51.454;6.736;2022-12-07T04:50:39;4.10;99.90
5352;DHT22;2698;51.454;6.736;2022-12-07T04:53:07;4.10;99.90
5352;DHT22;2698;51.454;6.736;2022-12-07T04:55:34;4.20;99.90
5352;DHT22;2698;51.454;6.736;2022-12-07T04:58:01;4.10;99.90
5352;DHT22;2698;51.454;6.736;2022-12-07T05:00:27;4.10;99.90
5352;DHT22;2698;51.454;6.736;2022-12-07T05:02:54;4.20;99.90
5352;DHT22;2698;51.454;6.736;2022-12-07T05:05:21;4.20;99.90
5352;DHT22;2698;51.454;6.736;2022-12-07T05:07:48;4.20;99.90
5352;DHT22;2698;51.454;6.736;2022-12-07T05:10:16;4.20;99.90
5352;DHT22;2698;51.454;6.736;2022-12-07T05:12:43;4.20;99.90
5352;DHT22;2698;51.454;6.736;2022-12-07T05:15:10;4.20;99.90
5352;DHT22;2698;51.454;6.736;2022-12-07T05:17:37;4.20;99.90
5352;DHT22;2698;51.454;6.736;2022-12-07T05:20:05;4.20;99.90
5352;DHT22;2698;51.454;6.736;2022-12-07T05:22:32;4.20;99.90
5352;DHT22;2698;51.454;6.736;2022-12-07T05:24:59;4.20;99.90
5352;DHT22;2698;51.454;6.736;2022-12-07T05:27:27;4.20;99.90
5352;DHT22;2698;51.454;6.736;2022-12-07T05:29:53;4.30;99.90
5352;DHT22;2698;51.454;6.736;2022-12-07T05:32:20;4.30;99.90
5352;DHT22;2698;51.454;6.736;2022-12-07T05:34:47;4.30;99.90
5352;DHT22;2698;51.454;6.736;2022-12-07T05:37:14;4.30;99.90
5352;DHT22;2698;51.454;6.736;2022-12-07T05:39:40;4.30;99.90
5352;DHT22;2698;51.454;6.736;2022-12-07T05:42:09;4.30;99.90
5352;DHT22;2698;51.454;6.736;2022-12-07T05:44:41;4.30;99.90
5352;DHT22;2698;51.454;6.736;2022-12-07T05:47:08;4.30;99.90
5352;DHT22;2698;51.454;6.736;2022-12-07T05:49:35;4.30;99.90
5352;DHT22;2698;51.454;6.736;2022-12-07T05:52:02;4.30;99.90
5352;DHT22;2698;51.454;6.736;2022-12-07T05:54:29;4.30;99.90
5352;DHT22;2698;51.454;6.736;2022-12-07T05:56:56;4.40;99.90
5352;DHT22;2698;51.454;6.736;2022-12-07T05:59:22;4.40;99.90
5352;DHT22;2698;51.454;6.736;2022-12-07T06:01:50;4.40;99.90
5352;DHT22;2698;51.454;6.736;2022-12-07T06:04:17;4.40;99.90
5352;DHT22;2698;51.454;6.736;2022-12-07T06:06:44;4.30;99.90
5352;DHT22;2698;51.454;6.736;2022-12-07T06:09:12;4.40;99.90
5352;DHT22;2698;51.454;6.736;2022-12-07T06:11:39;4.30;99.90
5352;DHT22;2698;51.454;6.736;2022-12-07T06:14:23;4.20;99.90
5352;DHT22;2698;51.454;6.736;2022-12-07T06:16:51;4.20;99.90
5352;DHT22;2698;51.454;6.736;2022-12-07T06:19:18;4.20;99.90
5352;DHT22;2698;51.454;6.736;2022-12-07T06:21:45;4.10;99.90
5352;DHT22;2698;51.454;6.736;2022-12-07T06:24:13;4.10;99.90
5352;DHT22;2698;51.454;6.736;2022-12-07T06:26:40;4.10;99.90
5352;DHT22;2698;51.454;6.736;2022-12-07T06:29:07;4.20;99.90
5352;DHT22;2698;51.454;6.736;2022-12-07T06:31:35;4.20;99.90
5352;DHT22;2698;51.454;6.736;2022-12-07T06:34:05;4.20;99.90
5352;DHT22;2698;51.454;6.736;2022-12-07T06:36:32;4.30;99.90
5352;DHT22;2698;51.454;6.736;2022-12-07T06:38:59;4.30;99.90
5352;DHT22;2698;51.454;6.736;2022-12-07T06:41:26;4.30;99.90
5352;DHT22;2698;51.454;6.736;2022-12-07T06:43:53;4.40;99.90
5352;DHT22;2698;51.454;6.736;2022-12-07T06:46:19;4.30;99.90
5352;DHT22;2698;51.454;6.736;2022-12-07T06:48:46;4.30;99.90
5352;DHT22;2698;51.454;6.736;2022-12-07T06:51:14;4.40;99.90
5352;DHT22;2698;51.454;6.736;2022-12-07T06:53:41;4.40;99.90
5352;DHT22;2698;51.454;6.736;2022-12-07T06:56:08;4.40;99.90
5352;DHT22;2698;51.454;6.736;2022-12-07T06:58:35;4.40;99.90
5352;DHT22;2698;51.454;6.736;2022-12-07T07:01:02;4.40;99.90
5352;DHT22;2698;51.454;6.736;2022-12-07T07:03:29;4.30;99.90
5352;DHT22;2698;51.454;6.736;2022-12-07T07:05:55;4.30;99.90
5352;DHT22;2698;51.454;6.736;2022-12-07T07:08:24;4.20;99.90
5352;DHT22;2698;51.454;6.736;2022-12-07T07:10:50;4.20;99.90
5352;DHT22;2698;51.454;6.736;2022-12-07T07:13:17;4.10;99.90
5352;DHT22;2698;51.454;6.736;2022-12-07T07:15:44;4.20;99.90
5352;DHT22;2698;51.454;6.736;2022-12-07T07:18:11;4.20;99.90
5352;DHT22;2698;51.454;6.736;2022-12-07T07:20:38;4.20;99.90
5352;DHT22;2698;51.454;6.736;2022-12-07T07:23:05;4.20;99.90
5352;DHT22;2698;51.454;6.736;2022-12-07T07:25:34;4.10;99.90
5352;DHT22;2698;51.454;6.736;2022-12-07T07:28:01;4.10;99.90
5352;DHT22;2698;51.454;6.736;2022-12-07T07:30:28;4.10;99.90
5352;DHT22;2698;51.454;6.736;2022-12-07T07:32:56;4.20;99.90
5352;DHT22;2698;51.454;6.736;2022-12-07T07:35:23;4.10;99.90
5352;DHT22;2698;51.454;6.736;2022-12-07T07:37:50;4.20;99.90
5352;DHT22;2698;51.454;6.736;2022-12-07T07:40:17;4.20;99.90
5352;DHT22;2698;51.454;6.736;2022-12-07T07:42:47;4.20;99.90
5352;DHT22;2698;51.454;6.736;2022-12-07T07:45:13;4.10;99.90
5352;DHT22;2698;51.454;6.736;2022-12-07T07:47:40;4.00;99.90
5352;DHT22;2698;51.454;6.736;2022-12-07T07:50:08;4.00;99.90
5352;DHT22;2698;51.454;6.736;2022-12-07T07:52:35;4.00;99.90
5352;DHT22;2698;51.454;6.736;2022-12-07T07:55:03;4.00;99.90
5352;DHT22;2698;51.454;6.736;2022-12-07T07:57:30;4.10;99.90
5352;DHT22;2698;51.454;6.736;2022-12-07T07:59:58;4.10;99.90
5352;DHT22;2698;51.454;6.736;2022-12-07T08:02:24;4.10;99.90
5352;DHT22;2698;51.454;6.736;2022-12-07T08:04:51;4.10;99.90
5352;DHT22;2698;51.454;6.736;2022-12-07T08:07:18;4.00;99.90
5352;DHT22;2698;51.454;6.736;2022-12-07T08:09:45;4.00;99.90
5352;DHT22;2698;51.454;6.736;2022-12-07T08:12:12;3.90;99.90
5352;DHT22;2698;51.454;6.736;2022-12-07T08:14:39;3.90;99.90
5352;DHT22;2698;51.454;6.736;2022-12-07T08:17:08;3.90;99.90
5352;DHT22;2698;51.454;6.736;2022-12-07T08:19:34;3.80;99.90
5352;DHT22;2698;51.454;6.736;2022-12-07T08:22:02;3.70;99.90
5352;DHT22;2698;51.454;6.736;2022-12-07T08:24:28;3.70;99.90
5352;DHT22;2698;51.454;6.736;2022-12-07T08:26:55;3.70;99.90
5352;DHT22;2698;51.454;6.736;2022-12-07T08:29:22;3.60;99.90
5352;DHT22;2698;51.454;6.736;2022-12-07T08:31:49;3.60;99.90
5352;DHT22;2698;51.454;6.736;2022-12-07T08:34:17;3.50;99.90
5352;DHT22;2698;51.454;6.736;2022-12-07T08:36:44;3.50;99.90
5352;DHT22;2698;51.454;6.736;2022-12-07T08:39:11;3.70;99.90
5352;DHT22;2698;51.454;6.736;2022-12-07T08:41:38;3.50;99.90
5352;DHT22;2698;51.454;6.736;2022-12-07T08:44:04;3.50;99.90
5352;DHT22;2698;51.454;6.736;2022-12-07T08:46:34;3.60;99.90
5352;DHT22;2698;51.454;6.736;2022-12-07T08:49:05;3.60;99.90
5352;DHT22;2698;51.454;6.736;2022-12-07T08:51:36;3.70;99.90
5352;DHT22;2698;51.454;6.736;2022-12-07T08:54:05;3.70;99.90
5352;DHT22;2698;51.454;6.736;2022-12-07T08:56:33;3.70;99.90
5352;DHT22;2698;51.454;6.736;2022-12-07T08:59:00;3.90;99.90
5352;DHT22;2698;51.454;6.736;2022-12-07T09:01:28;3.80;99.90
5352;DHT22;2698;51.454;6.736;2022-12-07T09:03:55;3.80;99.90
5352;DHT22;2698;51.454;6.736;2022-12-07T09:06:22;3.90;99.90
5352;DHT22;2698;51.454;6.736;2022-12-07T09:08:53;4.00;99.90
5352;DHT22;2698;51.454;6.736;2022-12-07T09:11:21;4.20;99.90
5352;DHT22;2698;51.454;6.736;2022-12-07T09:13:48;4.40;99.90
5352;DHT22;2698;51.454;6.736;2022-12-07T09:16:15;4.50;99.90
5352;DHT22;2698;51.454;6.736;2022-12-07T09:18:42;4.60;99.90
5352;DHT22;2698;51.454;6.736;2022-12-07T09:21:37;4.60;99.90
5352;DHT22;2698;51.454;6.736;2022-12-07T09:24:07;4.80;99.90
5352;DHT22;2698;51.454;6.736;2022-12-07T09:26:34;4.90;99.90
5352;DHT22;2698;51.454;6.736;2022-12-07T09:29:02;5.10;99.90
5352;DHT22;2698;51.454;6.736;2022-12-07T09:31:29;5.00;99.90
5352;DHT22;2698;51.454;6.736;2022-12-07T09:33:56;5.20;99.90
5352;DHT22;2698;51.454;6.736;2022-12-07T09:36:24;5.20;99.90
5352;DHT22;2698;51.454;6.736;2022-12-07T09:38:51;5.20;99.90
5352;DHT22;2698;51.454;6.736;2022-12-07T09:41:19;5.20;99.90
5352;DHT22;2698;51.454;6.736;2022-12-07T09:43:47;5.10;99.90
5352;DHT22;2698;51.454;6.736;2022-12-07T09:46:16;5.10;99.90
5352;DHT22;2698;51.454;6.736;2022-12-07T09:48:44;5.10;99.90
5352;DHT22;2698;51.454;6.736;2022-12-07T09:51:15;5.10;99.90
5352;DHT22;2698;51.454;6.736;2022-12-07T09:53:43;5.20;99.90
5352;DHT22;2698;51.454;6.736;2022-12-07T09:56:13;5.30;99.90
5352;DHT22;2698;51.454;6.736;2022-12-07T09:58:42;5.30;99.90
5352;DHT22;2698;51.454;6.736;2022-12-07T10:01:13;5.40;99.90
5352;DHT22;2698;51.454;6.736;2022-12-07T10:03:44;5.50;99.90
5352;DHT22;2698;51.454;6.736;2022-12-07T10:06:12;5.60;99.90
5352;DHT22;2698;51.454;6.736;2022-12-07T10:08:40;5.70;99.90
5352;DHT22;2698;51.454;6.736;2022-12-07T10:11:08;5.80;99.90
5352;DHT22;2698;51.454;6.736;2022-12-07T10:13:37;5.90;99.90
5352;DHT22;2698;51.454;6.736;2022-12-07T10:16:09;6.10;99.90
5352;DHT22;2698;51.454;6.736;2022-12-07T10:18:54;6.20;99.90
5352;DHT22;2698;51.454;6.736;2022-12-07T10:21:22;6.40;99.90
5352;DHT22;2698;51.454;6.736;2022-12-07T10:24:00;6.50;99.90
5352;DHT22;2698;51.454;6.736;2022-12-07T10:26:30;6.50;99.90
5352;DHT22;2698;51.454;6.736;2022-12-07T10:29:00;6.60;99.90
5352;DHT22;2698;51.454;6.736;2022-12-07T10:31:29;6.50;99.90
5352;DHT22;2698;51.454;6.736;2022-12-07T10:33:58;6.50;99.90
5352;DHT22;2698;51.454;6.736;2022-12-07T10:36:26;6.50;99.90
5352;DHT22;2698;51.454;6.736;2022-12-07T10:38:59;6.40;99.90
5352;DHT22;2698;51.454;6.736;2022-12-07T10:41:27;6.40;99.90
5352;DHT22;2698;51.454;6.736;2022-12-07T10:43:55;6.50;99.90
5352;DHT22;2698;51.454;6.736;2022-12-07T10:46:45;6.40;99.90
5352;DHT22;2698;51.454;6.736;2022-12-07T10:49:30;6.50;99.90
5352;DHT22;2698;51.454;6.736;2022-12-07T10:52:07;6.50;99.90
5352;DHT22;2698;51.454;6.736;2022-12-07T10:54:41;6.60;99.90
5352;DHT22;2698;51.454;6.736;2022-12-07T10:57:30;6.60;99.90
5352;DHT22;2698;51.454;6.736;2022-12-07T11:00:09;6.60;99.90
5352;DHT22;2698;51.454;6.736;2022-12-07T11:05:51;6.60;99.90
5352;DHT22;2698;51.454;6.736;2022-12-07T11:08:33;6.70;99.90
5352;DHT22;2698;51.454;6.736;2022-12-07T11:11:09;6.80;99.90
5352;DHT22;2698;51.454;6.736;2022-12-07T11:13:46;6.80;99.90
5352;DHT22;2698;51.454;6.736;2022-12-07T11:16:30;6.90;99.90
5352;DHT22;2698;51.454;6.736;2022-12-07T11:19:15;6.90;99.90
5352;DHT22;2698;51.454;6.736;2022-12-07T11:21:50;6.90;99.90
5352;DHT22;2698;51.454;6.736;2022-12-07T11:24:23;6.90;99.90
5352;DHT22;2698;51.454;6.736;2022-12-07T11:27:07;6.90;99.90
5352;DHT22;2698;51.454;6.736;2022-12-07T11:32:47;6.70;99.90
5352;DHT22;2698;51.454;6.736;2022-12-07T11:35:22;6.80;99.90
5352;DHT22;2698;51.454;6.736;2022-12-07T11:37:57;6.80;99.90
5352;DHT22;2698;51.454;6.736;2022-12-07T11:40:29;6.80;99.90
5352;DHT22;2698;51.454;6.736;2022-12-07T11:43:02;6.80;99.90
5352;DHT22;2698;51.454;6.736;2022-12-07T11:45:32;6.80;99.90
5352;DHT22;2698;51.454;6.736;2022-12-07T11:48:01;6.80;99.90
5352;DHT22;2698;51.454;6.736;2022-12-07T11:50:34;6.80;99.90
5352;DHT22;2698;51.454;6.736;2022-12-07T11:53:09;6.90;99.90
5352;DHT22;2698;51.454;6.736;2022-12-07T11:55:43;6.90;99.90
5352;DHT22;2698;51.454;6.736;2022-12-07T11:58:26;7.00;99.90
5352;DHT22;2698;51.454;6.736;2022-12-07T12:01:05;6.90;99.90
5352;DHT22;2698;51.454;6.736;2022-12-07T12:03:40;6.90;99.90
5352;DHT22;2698;51.454;6.736;2022-12-07T12:06:08;7.00;99.90
5352;DHT22;2698;51.454;6.736;2022-12-07T12:08:39;6.80;99.90
5352;DHT22;2698;51.454;6.736;2022-12-07T12:11:17;6.90;99.90
5352;DHT22;2698;51.454;6.736;2022-12-07T12:14:09;6.80;99.90
5352;DHT22;2698;51.454;6.736;2022-12-07T12:19:59;6.80;99.90
5352;DHT22;2698;51.454;6.736;2022-12-07T12:22:33;6.80;99.90
5352;DHT22;2698;51.454;6.736;2022-12-07T12:25:04;6.90;99.90
5352;DHT22;2698;51.454;6.736;2022-12-07T12:27:34;6.90;99.90
5352;DHT22;2698;51.454;6.736;2022-12-07T12:30:04;6.90;99.90
5352;DHT22;2698;51.454;6.736;2022-12-07T12:32:37;7.00;99.90
5352;DHT22;2698;51.454;6.736;2022-12-07T12:35:27;7.00;99.90
5352;DHT22;2698;51.454;6.736;2022-12-07T12:38:24;7.00;99.90
5352;DHT22;2698;51.454;6.736;2022-12-07T12:40:52;7.00;99.90
5352;DHT22;2698;51.454;6.736;2022-12-07T12:43:46;6.90;99.90
5352;DHT22;2698;51.454;6.736;2022-12-07T12:46:38;7.00;99.90
5352;DHT22;2698;51.454;6.736;2022-12-07T12:49:37;7.00;99.90
5352;DHT22;2698;51.454;6.736;2022-12-07T12:58:32;7.00;99.90
5352;DHT22;2698;51.454;6.736;2022-12-07T13:04:17;6.90;99.90
5352;DHT22;2698;51.454;6.736;2022-12-07T13:06:44;6.80;99.90
5352;DHT22;2698;51.454;6.736;2022-12-07T13:09:20;6.80;99.90
5352;DHT22;2698;51.454;6.736;2022-12-07T13:11:54;6.80;99.90
5352;DHT22;2698;51.454;6.736;2022-12-07T13:14:56;6.80;99.90
5352;DHT22;2698;51.454;6.736;2022-12-07T13:17:58;6.80;99.90
5352;DHT22;2698;51.454;6.736;2022-12-07T13:20:47;6.80;99.90
5352;DHT22;2698;51.454;6.736;2022-12-07T13:23:18;6.90;99.90
5352;DHT22;2698;51.454;6.736;2022-12-07T13:25:51;6.80;99.90
5352;DHT22;2698;51.454;6.736;2022-12-07T13:28:20;6.80;99.90
5352;DHT22;2698;51.454;6.736;2022-12-07T13:31:10;6.80;99.90
5352;DHT22;2698;51.454;6.736;2022-12-07T13:33:37;6.80;99.90
5352;DHT22;2698;51.454;6.736;2022-12-07T13:36:08;6.70;99.90
5352;DHT22;2698;51.454;6.736;2022-12-07T13:38:49;6.60;99.90
5352;DHT22;2698;51.454;6.736;2022-12-07T13:41:17;6.50;99.90
5352;DHT22;2698;51.454;6.736;2022-12-07T13:43:49;6.50;99.90
5352;DHT22;2698;51.454;6.736;2022-12-07T13:46:20;6.50;99.90
5352;DHT22;2698;51.454;6.736;2022-12-07T13:48:49;6.50;99.90
5352;DHT22;2698;51.454;6.736;2022-12-07T13:51:22;6.50;99.90
5352;DHT22;2698;51.454;6.736;2022-12-07T13:53:51;6.50;99.90
5352;DHT22;2698;51.454;6.736;2022-12-07T13:56:18;6.40;99.90
5352;DHT22;2698;51.454;6.736;2022-12-07T13:58:48;6.40;99.90
5352;DHT22;2698;51.454;6.736;2022-12-07T14:01:15;6.40;99.90
5352;DHT22;2698;51.454;6.736;2022-12-07T14:03:42;6.50;99.90
5352;DHT22;2698;51.454;6.736;2022-12-07T14:06:22;6.40;99.90
5352;DHT22;2698;51.454;6.736;2022-12-07T14:08:51;6.50;99.90
5352;DHT22;2698;51.454;6.736;2022-12-07T14:11:32;6.50;99.90
5352;DHT22;2698;51.454;6.736;2022-12-07T14:14:02;6.40;99.90
5352;DHT22;2698;51.454;6.736;2022-12-07T14:16:31;6.40;99.90
5352;DHT22;2698;51.454;6.736;2022-12-07T14:19:01;6.40;99.90
5352;DHT22;2698;51.454;6.736;2022-12-07T14:21:29;6.10;99.90
5352;DHT22;2698;51.454;6.736;2022-12-07T14:24:09;6.20;99.90
5352;DHT22;2698;51.454;6.736;2022-12-07T14:26:37;6.10;99.90
5352;DHT22;2698;51.454;6.736;2022-12-07T14:29:27;6.00;99.90
5352;DHT22;2698;51.454;6.736;2022-12-07T14:31:57;6.00;99.90
5352;DHT22;2698;51.454;6.736;2022-12-07T14:34:24;5.90;99.90
5352;DHT22;2698;51.454;6.736;2022-12-07T14:36:51;6.00;99.90
5352;DHT22;2698;51.454;6.736;2022-12-07T14:39:18;5.80;99.90
5352;DHT22;2698;51.454;6.736;2022-12-07T14:41:45;5.80;99.90
5352;DHT22;2698;51.454;6.736;2022-12-07T14:44:22;5.80;99.90
5352;DHT22;2698;51.454;6.736;2022-12-07T14:46:50;5.70;99.90
5352;DHT22;2698;51.454;6.736;2022-12-07T14:49:17;5.70;99.90
5352;DHT22;2698;51.454;6.736;2022-12-07T14:51:46;5.60;99.90
5352;DHT22;2698;51.454;6.736;2022-12-07T14:54:15;5.60;99.90
5352;DHT22;2698;51.454;6.736;2022-12-07T14:56:43;5.50;99.90
5352;DHT22;2698;51.454;6.736;2022-12-07T14:59:11;5.40;99.90
5352;DHT22;2698;51.454;6.736;2022-12-07T15:01:39;5.40;99.90
5352;DHT22;2698;51.454;6.736;2022-12-07T15:04:06;5.30;99.90
5352;DHT22;2698;51.454;6.736;2022-12-07T15:06:33;5.40;99.90
5352;DHT22;2698;51.454;6.736;2022-12-07T15:08:59;5.30;99.90
5352;DHT22;2698;51.454;6.736;2022-12-07T15:11:27;5.30;99.90
5352;DHT22;2698;51.454;6.736;2022-12-07T15:13:53;5.30;99.90
5352;DHT22;2698;51.454;6.736;2022-12-07T15:16:35;5.20;99.90
5352;DHT22;2698;51.454;6.736;2022-12-07T15:19:03;5.20;99.90
5352;DHT22;2698;51.454;6.736;2022-12-07T15:21:30;5.20;99.90
5352;DHT22;2698;51.454;6.736;2022-12-07T15:23:56;5.20;99.90
5352;DHT22;2698;51.454;6.736;2022-12-07T15:26:23;5.20;99.90
5352;DHT22;2698;51.454;6.736;2022-12-07T15:28:52;5.10;99.90
5352;DHT22;2698;51.454;6.736;2022-12-07T15:31:19;5.20;99.90
5352;DHT22;2698;51.454;6.736;2022-12-07T15:33:45;5.10;99.90
5352;DHT22;2698;51.454;6.736;2022-12-07T15:36:19;5.10;99.90
5352;DHT22;2698;51.454;6.736;2022-12-07T15:38:46;5.10;99.90
5352;DHT22;2698;51.454;6.736;2022-12-07T15:41:13;5.10;99.90
5352;DHT22;2698;51.454;6.736;2022-12-07T15:43:40;5.10;99.90
5352;DHT22;2698;51.454;6.736;2022-12-07T15:46:23;5.10;99.90
5352;DHT22;2698;51.454;6.736;2022-12-07T15:48:55;5.10;99.90
5352;DHT22;2698;51.454;6.736;2022-12-07T15:51:23;5.20;99.90
5352;DHT22;2698;51.454;6.736;2022-12-07T15:53:50;5.20;99.90
5352;DHT22;2698;51.454;6.736;2022-12-07T15:56:16;5.20;99.90
5352;DHT22;2698;51.454;6.736;2022-12-07T15:58:43;5.20;99.90
5352;DHT22;2698;51.454;6.736;2022-12-07T16:01:11;5.20;99.90
5352;DHT22;2698;51.454;6.736;2022-12-07T16:03:37;5.20;99.90
5352;DHT22;2698;51.454;6.736;2022-12-07T16:06:05;5.30;99.90
5352;DHT22;2698;51.454;6.736;2022-12-07T16:08:33;5.30;99.90
5352;DHT22;2698;51.454;6.736;2022-12-07T16:11:00;5.30;99.90
5352;DHT22;2698;51.454;6.736;2022-12-07T16:13:26;5.30;99.90
5352;DHT22;2698;51.454;6.736;2022-12-07T16:15:53;5.30;99.90
5352;DHT22;2698;51.454;6.736;2022-12-07T16:18:20;5.30;99.90
5352;DHT22;2698;51.454;6.736;2022-12-07T16:20:47;5.40;99.90
5352;DHT22;2698;51.454;6.736;2022-12-07T16:23:15;5.30;99.90
5352;DHT22;2698;51.454;6.736;2022-12-07T16:25:43;5.40;99.90
5352;DHT22;2698;51.454;6.736;2022-12-07T16:28:10;5.40;99.90
5352;DHT22;2698;51.454;6.736;2022-12-07T16:30:37;5.40;99.90
5352;DHT22;2698;51.454;6.736;2022-12-07T16:33:03;5.40;99.90
5352;DHT22;2698;51.454;6.736;2022-12-07T16:35:30;5.40;99.90
5352;DHT22;2698;51.454;6.736;2022-12-07T16:37:57;5.40;99.90
5352;DHT22;2698;51.454;6.736;2022-12-07T16:40:23;5.40;99.90
5352;DHT22;2698;51.454;6.736;2022-12-07T16:42:52;5.50;99.90
5352;DHT22;2698;51.454;6.736;2022-12-07T16:45:19;5.40;99.90
5352;DHT22;2698;51.454;6.736;2022-12-07T16:47:45;5.40;99.90
5352;DHT22;2698;51.454;6.736;2022-12-07T16:50:12;5.50;99.90
5352;DHT22;2698;51.454;6.736;2022-12-07T16:52:39;5.50;99.90
5352;DHT22;2698;51.454;6.736;2022-12-07T16:55:07;5.50;99.90
5352;DHT22;2698;51.454;6.736;2022-12-07T16:57:33;5.50;99.90
5352;DHT22;2698;51.454;6.736;2022-12-07T17:00:03;5.50;99.90